createdAt,value
2022-09-10T00:01:29.026Z,79.26
2022-09-10T00:03:58.307Z,83.47
2022-09-10T00:06:27.460Z,83.08
2022-09-10T00:08:57.405Z,81.53
2022-09-10T00:11:26.032Z,79.91
2022-09-10T00:13:57.272Z,78.83
2022-09-10T00:16:25.589Z,81.27
2022-09-10T00:18:53.411Z,80.98
2022-09-10T00:21:22.628Z,80.27
2022-09-10T00:23:50.626Z,79.65
2022-09-10T00:26:21.854Z,80.42
2022-09-10T00:28:51.012Z,79.43
2022-09-10T00:31:19.528Z,79.42
2022-09-10T00:33:47.478Z,80.00
2022-09-10T00:36:17.171Z,79.49
2022-09-10T00:38:46.954Z,79.61
2022-09-10T00:41:15.934Z,79.04
2022-09-10T00:43:53.451Z,79.00
2022-09-10T00:46:42.683Z,80.36
2022-09-10T00:49:15.698Z,79.89
2022-09-10T00:51:44.560Z,82.71
2022-09-10T00:54:15.310Z,82.69
2022-09-10T00:56:43.594Z,80.73
2022-09-10T00:59:14.501Z,81.50
2022-09-10T01:01:43.072Z,81.85
2022-09-10T01:04:11.385Z,81.00
2022-09-10T01:06:41.492Z,80.74
2022-09-10T01:09:10.649Z,80.84
2022-09-10T01:12:05.026Z,80.74
2022-09-10T01:14:55.527Z,79.75
2022-09-10T01:17:31.604Z,79.89
2022-09-10T01:20:28.757Z,80.28
2022-09-10T01:23:20.389Z,80.36
2022-09-10T01:25:58.033Z,80.93
2022-09-10T01:28:34.756Z,80.89
2022-09-10T01:31:11.432Z,80.74
2022-09-10T01:33:47.509Z,82.03
2022-09-10T01:36:22.282Z,82.27
2022-09-10T01:38:51.680Z,83.63
2022-09-10T01:41:25.941Z,85.77
2022-09-10T01:43:57.497Z,85.13
2022-09-10T01:46:41.465Z,84.53
2022-09-10T01:49:23.332Z,83.79
2022-09-10T01:52:06.846Z,84.89
2022-09-10T01:54:47.161Z,84.36
2022-09-10T01:57:27.829Z,83.35
2022-09-10T02:00:06.887Z,83.06
2022-09-10T02:02:45.509Z,82.38
2022-09-10T02:05:16.659Z,82.45
2022-09-10T02:07:47.925Z,83.24
2022-09-10T02:10:16.605Z,82.89
2022-09-10T02:12:47.422Z,82.34
2022-09-10T02:15:32.496Z,81.67
2022-09-10T02:18:12.405Z,82.77
2022-09-10T02:20:40.581Z,82.56
2022-09-10T02:23:10.311Z,82.77
2022-09-10T02:25:38.287Z,82.79
2022-09-10T02:28:07.164Z,82.73
2022-09-10T02:30:36.319Z,83.07
2022-09-10T02:33:04.095Z,82.08
2022-09-10T02:35:32.004Z,81.86
2022-09-10T02:37:59.920Z,81.96
2022-09-10T02:40:31.748Z,82.27
2022-09-10T02:43:00.382Z,82.14
2022-09-10T02:45:30.128Z,82.97
2022-09-10T02:48:00.815Z,83.06
2022-09-10T02:50:30.130Z,82.57
2022-09-10T02:52:58.092Z,83.01
2022-09-10T02:55:28.475Z,83.01
2022-09-10T02:57:56.409Z,82.50
2022-09-10T03:00:24.244Z,81.94
2022-09-10T03:02:52.098Z,81.36
2022-09-10T03:05:21.350Z,81.28
2022-09-10T03:07:50.007Z,81.57
2022-09-10T03:10:18.268Z,83.29
2022-09-10T03:12:47.925Z,83.57
2022-09-10T03:15:20.434Z,83.65
2022-09-10T03:17:48.540Z,85.98
2022-09-10T03:20:18.193Z,85.70
2022-09-10T03:22:47.578Z,85.06
2022-09-10T03:25:17.179Z,84.52
2022-09-10T03:27:44.957Z,84.09
2022-09-10T03:30:14.179Z,84.40
2022-09-10T03:32:42.569Z,83.27
2022-09-10T03:35:11.113Z,83.49
2022-09-10T03:37:39.287Z,83.38
2022-09-10T03:40:10.786Z,82.49
2022-09-10T03:42:38.646Z,82.47
2022-09-10T03:45:07.497Z,82.41
2022-09-10T03:47:36.957Z,82.29
2022-09-10T03:50:05.343Z,82.79
2022-09-10T03:52:33.446Z,82.65
2022-09-10T03:55:02.598Z,82.42
2022-09-10T03:57:31.728Z,82.29
2022-09-10T03:59:59.955Z,82.07
2022-09-10T04:02:27.813Z,82.14
2022-09-10T04:04:55.664Z,81.88
2022-09-10T04:07:23.362Z,81.66
2022-09-10T04:09:51.962Z,82.31
2022-09-10T04:12:19.788Z,83.19
2022-09-10T04:14:51.588Z,83.65
2022-09-10T04:17:19.740Z,83.07
2022-09-10T04:19:47.739Z,83.00
2022-09-10T04:22:15.554Z,84.07
2022-09-10T04:24:44.547Z,83.58
2022-09-10T04:27:12.311Z,84.45
2022-09-10T04:29:43.000Z,84.18
2022-09-10T04:32:12.214Z,84.46
2022-09-10T04:34:40.020Z,84.02
2022-09-10T04:37:07.807Z,83.09
2022-09-10T04:39:35.983Z,83.71
2022-09-10T04:42:06.771Z,84.13
2022-09-10T04:44:34.760Z,84.58
2022-09-10T04:47:03.661Z,83.62
2022-09-10T04:49:32.987Z,84.73
2022-09-10T04:52:00.753Z,84.89
2022-09-10T04:54:30.777Z,84.55
2022-09-10T04:56:59.954Z,85.18
2022-09-10T04:59:27.926Z,85.32
2022-09-10T05:01:55.692Z,84.76
2022-09-10T05:04:23.470Z,84.33
2022-09-10T05:06:53.242Z,84.25
2022-09-10T05:09:21.983Z,84.79
2022-09-10T05:11:50.500Z,84.44
2022-09-10T05:14:21.278Z,84.62
2022-09-10T05:16:49.154Z,84.42
2022-09-10T05:19:18.612Z,84.77
2022-09-10T05:21:53.418Z,83.95
2022-09-10T05:24:21.374Z,83.55
2022-09-10T05:26:49.375Z,83.37
2022-09-10T05:29:18.332Z,83.45
2022-09-10T05:31:48.396Z,83.22
2022-09-10T05:34:16.174Z,83.64
2022-09-10T05:36:44.468Z,83.85
2022-09-10T05:39:15.662Z,83.65
2022-09-10T05:41:44.292Z,83.29
2022-09-10T05:44:12.064Z,82.68
2022-09-10T05:46:40.459Z,82.53
2022-09-10T05:49:14.066Z,81.79
2022-09-10T05:51:42.301Z,81.74
2022-09-10T05:54:11.264Z,83.09
2022-09-10T05:56:40.671Z,82.09
2022-09-10T05:59:10.618Z,82.04
2022-09-10T06:01:39.458Z,81.98
2022-09-10T06:04:07.971Z,82.53
2022-09-10T06:06:35.921Z,82.63
2022-09-10T06:09:08.156Z,82.91
2022-09-10T06:11:48.620Z,83.84
2022-09-10T06:14:20.206Z,82.47
2022-09-10T06:16:49.357Z,82.24
2022-09-10T06:19:17.622Z,81.75
2022-09-10T06:21:45.961Z,82.94
2022-09-10T06:24:14.508Z,82.56
2022-09-10T06:26:43.951Z,82.90
2022-09-10T06:29:15.604Z,83.17
2022-09-10T06:31:44.000Z,85.25
2022-09-10T06:34:12.835Z,84.49
2022-09-10T06:36:41.444Z,83.61
2022-09-10T06:39:09.861Z,83.73
2022-09-10T06:41:49.765Z,83.55
2022-09-10T06:44:37.824Z,82.31
2022-09-10T06:48:06.781Z,82.49
2022-09-10T06:50:05.346Z,83.30
2022-09-10T06:52:37.633Z,82.00
2022-09-10T06:55:09.025Z,82.48
2022-09-10T06:57:40.085Z,81.96
2022-09-10T07:00:11.754Z,82.26
2022-09-10T07:02:40.967Z,81.75
2022-09-10T07:05:10.493Z,82.98
2022-09-10T07:07:39.424Z,79.53
2022-09-10T07:10:09.651Z,79.26
2022-09-10T07:12:37.919Z,79.55
2022-09-10T07:15:08.570Z,78.70
2022-09-10T07:17:38.775Z,79.08
2022-09-10T07:20:08.408Z,78.18
2022-09-10T07:22:43.694Z,79.32
2022-09-10T07:25:13.271Z,80.93
2022-09-10T07:27:53.767Z,80.24
2022-09-10T07:30:23.173Z,79.93
2022-09-10T07:32:54.166Z,78.43
2022-09-10T07:35:26.196Z,78.59
2022-09-10T07:37:54.802Z,79.45
2022-09-10T07:40:23.410Z,78.61
2022-09-10T07:42:52.442Z,79.24
2022-09-10T07:45:21.315Z,78.45
2022-09-10T07:47:50.073Z,77.91
2022-09-10T07:50:20.140Z,77.87
2022-09-10T07:52:52.762Z,77.47
2022-09-10T07:55:23.305Z,78.14
2022-09-10T07:57:58.365Z,77.43
2022-09-10T08:00:34.800Z,77.64
2022-09-10T08:03:07.291Z,78.08
2022-09-10T08:05:39.469Z,78.23
2022-09-10T08:08:07.942Z,77.64
2022-09-10T08:10:36.295Z,76.75
2022-09-10T08:13:04.154Z,75.18
2022-09-10T08:15:31.953Z,75.44
2022-09-10T08:18:02.301Z,75.38
2022-09-10T08:20:33.297Z,77.43
2022-09-10T08:23:03.332Z,75.87
2022-09-10T08:25:33.351Z,72.74
2022-09-10T08:28:06.119Z,69.34
2022-09-10T08:30:34.071Z,68.04
2022-09-10T08:33:02.608Z,67.43
2022-09-10T08:35:31.014Z,68.33
2022-09-10T08:37:59.050Z,69.08
2022-09-10T08:40:28.861Z,69.16
2022-09-10T08:42:58.787Z,68.67
2022-09-10T08:45:32.708Z,70.19
2022-09-10T08:48:06.963Z,67.80
2022-09-10T08:50:45.079Z,67.11
2022-09-10T08:53:26.710Z,69.35
2022-09-10T08:56:03.231Z,68.91
2022-09-10T08:58:41.202Z,69.64
2022-09-10T09:01:16.338Z,68.17
2022-09-10T09:03:47.255Z,66.92
2022-09-10T09:06:28.989Z,67.61
2022-09-10T09:08:58.701Z,66.59
2022-09-10T09:11:40.873Z,65.93
2022-09-10T09:14:33.552Z,65.39
2022-09-10T09:17:28.326Z,63.50
2022-09-10T09:20:05.198Z,62.12
2022-09-10T09:22:45.704Z,62.68
2022-09-10T09:25:24.050Z,62.83
2022-09-10T09:27:56.504Z,63.53
2022-09-10T09:30:35.608Z,62.36
2022-09-10T09:33:14.522Z,61.15
2022-09-10T09:35:50.168Z,62.28
2022-09-10T09:38:23.821Z,59.88
2022-09-10T09:40:57.639Z,61.45
2022-09-10T09:43:36.337Z,60.54
2022-09-10T09:46:14.956Z,61.67
2022-09-10T09:48:47.250Z,63.04
2022-09-10T09:51:20.926Z,62.28
2022-09-10T09:54:00.979Z,62.52
2022-09-10T09:56:45.701Z,62.96
2022-09-10T09:59:26.647Z,63.57
2022-09-10T10:01:55.553Z,64.75
2022-09-10T10:04:26.841Z,63.60
2022-09-10T10:06:56.828Z,63.43
2022-09-10T10:09:28.962Z,62.73
2022-09-10T10:11:58.258Z,63.40
2022-09-10T10:14:39.364Z,64.51
2022-09-10T10:17:38.532Z,65.86
2022-09-10T10:20:14.086Z,69.47
2022-09-10T10:22:43.056Z,70.52
2022-09-10T10:25:38.217Z,70.35
2022-09-10T10:28:15.811Z,71.21
2022-09-10T10:30:45.253Z,71.38
2022-09-10T10:33:19.394Z,73.14
2022-09-10T10:35:51.590Z,74.77
2022-09-10T10:38:31.385Z,76.33
2022-09-10T10:41:22.054Z,74.18
2022-09-10T10:43:59.868Z,73.84
2022-09-10T10:46:37.332Z,75.41
2022-09-10T10:49:16.650Z,74.80
2022-09-10T10:51:53.040Z,77.06
2022-09-10T10:54:37.309Z,76.51
2022-09-10T10:57:18.203Z,75.59
2022-09-10T10:59:56.496Z,72.57
2022-09-10T11:02:38.439Z,72.77
2022-09-10T11:05:19.053Z,72.82
2022-09-10T11:07:47.635Z,71.60
2022-09-10T11:10:21.891Z,71.33
2022-09-10T11:12:54.657Z,70.67
2022-09-10T11:15:30.335Z,69.65
2022-09-10T11:18:07.013Z,69.66
2022-09-10T11:20:42.433Z,68.91
2022-09-10T11:23:20.413Z,68.00
2022-09-10T11:25:56.291Z,66.63
2022-09-10T11:28:29.895Z,64.75
2022-09-10T11:31:04.372Z,65.35
2022-09-10T11:33:40.487Z,63.99
2022-09-10T11:36:16.775Z,63.95
2022-09-10T11:38:53.068Z,62.96
2022-09-10T11:41:24.922Z,62.69
2022-09-10T11:44:00.460Z,63.21
2022-09-10T11:46:36.680Z,62.52
2022-09-10T11:49:13.402Z,62.97
2022-09-10T11:51:42.534Z,63.29
2022-09-10T11:54:16.077Z,67.00
2022-09-10T11:56:52.987Z,71.50
2022-09-10T11:59:36.748Z,71.35
2022-09-10T12:02:26.209Z,72.37
2022-09-10T12:05:04.330Z,70.50
2022-09-10T12:07:49.265Z,69.87
2022-09-10T12:10:24.132Z,66.91
2022-09-10T12:12:53.318Z,68.45
2022-09-10T12:15:23.371Z,68.32
2022-09-10T12:17:56.266Z,68.84
2022-09-10T12:20:29.928Z,65.89
2022-09-10T12:22:58.201Z,67.59
2022-09-10T12:25:34.163Z,65.42
2022-09-10T12:28:06.420Z,66.17
2022-09-10T12:31:02.859Z,67.86
2022-09-10T12:34:12.510Z,64.05
2022-09-10T12:37:17.354Z,64.32
2022-09-10T12:39:46.730Z,62.64
2022-09-10T12:42:34.954Z,62.03
2022-09-10T12:45:02.840Z,61.94
2022-09-10T12:47:46.846Z,60.96
2022-09-10T12:50:22.965Z,60.54
2022-09-10T12:53:23.332Z,58.32
2022-09-10T12:56:02.241Z,57.43
2022-09-10T12:58:56.746Z,56.31
2022-09-10T13:01:40.123Z,55.92
2022-09-10T13:04:24.538Z,57.90
2022-09-10T13:06:56.030Z,58.12
2022-09-10T13:09:27.721Z,57.53
2022-09-10T13:12:03.903Z,57.25
2022-09-10T13:14:36.004Z,57.32
2022-09-10T13:17:04.045Z,58.71
2022-09-10T13:19:52.182Z,58.62
2022-09-10T13:23:04.430Z,56.75
2022-09-10T13:25:41.495Z,56.09
2022-09-10T13:28:46.440Z,54.69
2022-09-10T13:31:21.195Z,56.92
2022-09-10T13:34:18.887Z,56.53
2022-09-10T13:37:00.707Z,54.73
2022-09-10T13:39:49.583Z,54.96
2022-09-10T13:42:35.844Z,53.58
2022-09-10T13:45:21.827Z,55.73
2022-09-10T13:48:01.646Z,56.09
2022-09-10T13:50:37.542Z,58.20
2022-09-10T13:53:08.239Z,56.04
2022-09-10T13:55:37.032Z,57.14
2022-09-10T13:58:14.024Z,56.53
2022-09-10T14:00:51.204Z,55.08
2022-09-10T14:03:23.846Z,55.42
2022-09-10T14:05:54.472Z,56.99
2022-09-10T14:08:26.039Z,57.33
2022-09-10T14:10:58.006Z,57.42
2022-09-10T14:13:33.637Z,60.26
2022-09-10T14:16:04.583Z,63.49
2022-09-10T14:18:43.256Z,64.70
2022-09-10T14:21:13.721Z,65.44
2022-09-10T14:23:44.853Z,66.23
2022-09-10T14:26:15.231Z,68.55
2022-09-10T14:28:51.405Z,67.12
2022-09-10T14:31:22.049Z,67.39
2022-09-10T14:33:51.537Z,66.58
2022-09-10T14:36:22.621Z,67.57
2022-09-10T14:38:57.431Z,68.14
2022-09-10T14:41:27.935Z,69.86
2022-09-10T14:44:15.195Z,69.99
2022-09-10T14:46:52.432Z,68.85
2022-09-10T14:49:27.528Z,70.79
2022-09-10T14:51:55.936Z,70.06
2022-09-10T14:54:24.433Z,67.95
2022-09-10T14:56:52.976Z,66.93
2022-09-10T14:59:29.249Z,68.86
2022-09-10T15:01:57.774Z,67.27
2022-09-10T15:04:27.573Z,67.09
2022-09-10T15:06:57.166Z,68.04
2022-09-10T15:09:25.352Z,67.71
2022-09-10T15:11:57.239Z,66.92
2022-09-10T15:14:25.937Z,68.03
2022-09-10T15:16:54.078Z,68.22
2022-09-10T15:19:22.542Z,67.23
2022-09-10T15:21:52.608Z,67.85
2022-09-10T15:24:22.829Z,68.37
2022-09-10T15:26:51.319Z,68.33
2022-09-10T15:29:19.039Z,69.12
2022-09-10T15:31:47.191Z,70.13
2022-09-10T15:34:15.301Z,71.12
2022-09-10T15:36:43.124Z,72.46
2022-09-10T15:39:14.003Z,76.51
2022-09-10T15:41:43.641Z,76.85
2022-09-10T15:44:12.148Z,80.51
2022-09-10T15:46:45.177Z,81.14
2022-09-10T15:49:13.325Z,80.98
2022-09-10T15:51:42.141Z,82.84
2022-09-10T15:54:11.540Z,82.68
2022-09-10T15:56:40.924Z,81.80
2022-09-10T15:59:10.003Z,81.98
2022-09-10T16:01:39.387Z,81.21
2022-09-10T16:04:08.037Z,80.28
2022-09-10T16:06:38.192Z,80.91
2022-09-10T16:09:09.105Z,82.19
2022-09-10T16:11:39.511Z,81.27
2022-09-10T16:14:12.351Z,82.41
2022-09-10T16:16:41.149Z,80.74
2022-09-10T16:19:09.811Z,80.14
2022-09-10T16:21:39.190Z,79.74
2022-09-10T16:24:07.853Z,78.79
2022-09-10T16:26:39.707Z,79.88
2022-09-10T16:29:14.359Z,80.93
2022-09-10T16:31:42.955Z,81.90
2022-09-10T16:34:13.427Z,81.43
2022-09-10T16:36:44.002Z,79.92
2022-09-10T16:39:15.453Z,80.79
2022-09-10T16:41:44.836Z,82.72
2022-09-10T16:44:15.245Z,81.78
2022-09-10T16:46:44.281Z,81.99
2022-09-10T16:49:13.808Z,82.91
2022-09-10T16:51:44.244Z,83.00
2022-09-10T16:54:13.895Z,82.10
2022-09-10T16:56:46.304Z,80.73
2022-09-10T16:59:17.916Z,80.59
2022-09-10T17:01:47.820Z,80.53
2022-09-10T17:04:20.450Z,79.37
2022-09-10T17:06:51.098Z,80.61
2022-09-10T17:09:18.967Z,81.03
2022-09-10T17:11:46.780Z,80.61
2022-09-10T17:14:15.917Z,80.03
2022-09-10T17:16:44.804Z,80.73
2022-09-10T17:19:15.098Z,81.00
2022-09-10T17:21:50.883Z,79.85
2022-09-10T17:24:20.842Z,78.42
2022-09-10T17:26:48.733Z,78.40
2022-09-10T17:29:19.793Z,78.46
2022-09-10T17:31:48.053Z,79.97
2022-09-10T17:34:17.445Z,79.30
2022-09-10T17:36:47.602Z,77.87
2022-09-10T17:39:18.133Z,78.33
2022-09-10T17:41:46.497Z,77.59
2022-09-10T17:44:14.735Z,78.58
2022-09-10T17:46:45.003Z,80.52
2022-09-10T17:49:14.562Z,79.80
2022-09-10T17:51:46.045Z,80.19
2022-09-10T17:54:15.950Z,80.97
2022-09-10T17:56:43.764Z,80.51
2022-09-10T17:59:17.679Z,81.58
2022-09-10T18:01:47.820Z,80.82
2022-09-10T18:04:16.319Z,80.73
2022-09-10T18:06:46.918Z,80.72
2022-09-10T18:09:17.186Z,81.69
2022-09-10T18:11:45.457Z,83.78
2022-09-10T18:14:17.887Z,82.92
2022-09-10T18:16:47.729Z,81.30
2022-09-10T18:19:17.215Z,81.77
2022-09-10T18:21:47.384Z,81.84
2022-09-10T18:24:16.845Z,81.26
2022-09-10T18:26:47.000Z,81.30
2022-09-10T18:29:17.145Z,79.26
2022-09-10T18:31:49.142Z,80.90
2022-09-10T18:34:23.068Z,81.82
2022-09-10T18:36:54.238Z,82.38
2022-09-10T18:39:23.834Z,80.43
2022-09-10T18:41:52.665Z,79.75
2022-09-10T18:44:23.018Z,79.93
2022-09-10T18:46:53.557Z,80.39
2022-09-10T18:49:24.738Z,80.51
2022-09-10T18:51:53.860Z,79.31
2022-09-10T18:54:25.219Z,79.44
2022-09-10T18:56:53.296Z,80.62
2022-09-10T18:59:23.112Z,79.92
2022-09-10T19:01:54.454Z,80.12
2022-09-10T19:04:25.224Z,78.71
2022-09-10T19:06:53.438Z,79.50
2022-09-10T19:09:23.594Z,79.45
2022-09-10T19:11:53.934Z,80.37
2022-09-10T19:14:23.474Z,79.91
2022-09-10T19:16:53.712Z,81.86
2022-09-10T19:19:23.176Z,81.98
2022-09-10T19:21:52.615Z,81.30
2022-09-10T19:24:32.911Z,80.53
2022-09-10T19:27:09.107Z,80.32
2022-09-10T19:29:36.921Z,80.16
2022-09-10T19:32:06.545Z,81.28
2022-09-10T19:34:34.251Z,82.09
2022-09-10T19:37:02.094Z,81.83
2022-09-10T19:39:29.890Z,81.59
2022-09-10T19:41:57.679Z,82.01
2022-09-10T19:44:25.438Z,81.36
2022-09-10T19:46:53.181Z,81.10
2022-09-10T19:49:22.352Z,80.52
2022-09-10T19:51:50.156Z,80.08
2022-09-10T19:54:21.375Z,81.07
2022-09-10T19:56:49.677Z,81.17
2022-09-10T19:59:17.575Z,82.23
2022-09-10T20:01:46.030Z,80.43
2022-09-10T20:04:14.975Z,81.14
2022-09-10T20:06:45.872Z,81.70
2022-09-10T20:09:16.049Z,82.40
2022-09-10T20:11:43.837Z,80.61
2022-09-10T20:14:13.855Z,81.28
2022-09-10T20:16:44.469Z,81.61
2022-09-10T20:19:14.436Z,82.78
2022-09-10T20:21:42.630Z,82.24
2022-09-10T20:24:11.955Z,80.18
2022-09-10T20:26:41.091Z,81.15
2022-09-10T20:29:12.477Z,82.62
2022-09-10T20:31:41.861Z,80.88
2022-09-10T20:34:15.361Z,81.71
2022-09-10T20:36:43.162Z,82.19
2022-09-10T20:39:14.597Z,82.86
2022-09-10T20:41:42.538Z,81.55
2022-09-10T20:44:12.816Z,81.60
2022-09-10T20:46:41.390Z,81.44
2022-09-10T20:49:13.072Z,80.19
2022-09-10T20:51:41.444Z,80.35
2022-09-10T20:54:13.391Z,82.00
2022-09-10T20:56:41.222Z,82.20
2022-09-10T20:59:13.578Z,81.07
2022-09-10T21:01:41.920Z,81.28
2022-09-10T21:04:10.388Z,81.16
2022-09-10T21:06:38.645Z,82.48
2022-09-10T21:09:07.191Z,81.62
2022-09-10T21:11:37.223Z,82.16
2022-09-10T21:14:07.501Z,80.65
2022-09-10T21:16:39.915Z,80.46
2022-09-10T21:19:10.553Z,79.94
2022-09-10T21:21:40.361Z,79.99
2022-09-10T21:24:11.333Z,79.42
2022-09-10T21:26:43.209Z,81.08
2022-09-10T21:29:13.188Z,80.92
2022-09-10T21:31:41.714Z,80.89
2022-09-10T21:34:10.077Z,80.24
2022-09-10T21:36:39.284Z,80.45
2022-09-10T21:39:09.742Z,79.32
2022-09-10T21:41:40.605Z,80.65
2022-09-10T21:44:14.030Z,81.01
2022-09-10T21:46:42.265Z,81.25
2022-09-10T21:49:10.554Z,80.67
2022-09-10T21:51:38.563Z,81.02
2022-09-10T21:54:07.081Z,80.64
2022-09-10T21:56:34.878Z,80.51
2022-09-10T21:59:04.397Z,79.93
2022-09-10T22:01:33.352Z,80.32
2022-09-10T22:04:01.888Z,78.74
2022-09-10T22:06:31.334Z,78.99
2022-09-10T22:09:01.476Z,80.50
2022-09-10T22:11:30.841Z,80.99
2022-09-10T22:14:01.052Z,82.06
2022-09-10T22:16:32.052Z,82.19
2022-09-10T22:19:02.204Z,81.77
2022-09-10T22:21:31.159Z,81.63
2022-09-10T22:23:59.796Z,82.25
2022-09-10T22:26:29.105Z,83.45
2022-09-10T22:28:59.381Z,83.06
2022-09-10T22:31:29.363Z,82.84
2022-09-10T22:34:00.245Z,82.86
2022-09-10T22:36:33.926Z,82.22
2022-09-10T22:39:03.933Z,83.19
2022-09-10T22:41:34.048Z,84.05
2022-09-10T22:44:05.723Z,84.37
2022-09-10T22:46:34.884Z,84.50
2022-09-10T22:49:04.629Z,83.88
2022-09-10T22:51:35.280Z,84.92
2022-09-10T22:54:05.005Z,84.31
2022-09-10T22:56:33.082Z,83.69
2022-09-10T22:59:01.007Z,83.45
2022-09-10T23:01:31.006Z,83.78
2022-09-10T23:03:59.743Z,85.00
2022-09-10T23:06:30.795Z,85.58
2022-09-10T23:09:03.276Z,86.63
2022-09-10T23:11:32.568Z,87.15
2022-09-10T23:14:03.016Z,88.38
2022-09-10T23:16:34.160Z,88.93
2022-09-10T23:19:08.455Z,88.02
2022-09-10T23:21:40.744Z,86.94
2022-09-10T23:24:09.215Z,87.71
2022-09-10T23:26:37.440Z,86.48
2022-09-10T23:29:06.264Z,87.11
2022-09-10T23:31:36.911Z,87.22
2022-09-10T23:34:09.833Z,86.11
2022-09-10T23:36:41.275Z,87.91
2022-09-10T23:39:12.936Z,87.12
2022-09-10T23:41:41.708Z,86.61
2022-09-10T23:44:10.335Z,85.64
2022-09-10T23:46:38.572Z,85.97
2022-09-10T23:49:07.412Z,87.17
2022-09-10T23:51:35.738Z,87.68
2022-09-10T23:54:05.386Z,87.56
2022-09-10T23:56:33.181Z,89.85
2022-09-10T23:59:00.946Z,90.33
